Weather at Licenciado Benito Juarez International Airport

Public forecast

Using degrees Celsius for public forecast. Weather courtesy of forecast.io.

Current aviation weather report (METAR) for Licenciado Benito Juarez International Airport

Retrieved 2021/12/04 00:52 UTC (16 minutes ago):

MMMX 040052Z 33010KT 12SM BKN250 20/M01 A3031 NOSIG RMK 8/008

Aviation forecast (TAF) for Licenciado Benito Juarez International Airport

Retrieved 2021-12-04 00:29 UTC (39 minutes ago):

TAF MMMX 032322Z 0400/0506 03015KT P6SM SKC TX23/0421Z TN07/0412Z BECMG 0405/0406 00000KT FM041200 00000KT 3SM HZ SCT010 FM041600 02010KT 4SM HZ SCT020 BECMG 0500/0501 00000KT